createdAt,value
2022-07-30T00:02:19.510Z,6.13
2022-07-30T00:07:22.081Z,10.57
2022-07-30T00:12:24.668Z,11.03
2022-07-30T00:17:27.350Z,7.33
2022-07-30T00:22:31.754Z,5.13
2022-07-30T00:27:35.318Z,7.37
2022-07-30T00:32:37.933Z,8.30
2022-07-30T00:37:40.467Z,8.20
2022-07-30T00:42:47.873Z,7.00
2022-07-30T00:47:50.380Z,6.73
2022-07-30T00:52:53.109Z,7.40
2022-07-30T00:57:55.559Z,6.10
2022-07-30T01:02:58.069Z,6.30
2022-07-30T01:08:00.815Z,5.17
2022-07-30T01:13:04.896Z,8.57
2022-07-30T01:18:10.192Z,8.40
2022-07-30T01:23:27.840Z,9.07
2022-07-30T01:28:38.111Z,7.47
2022-07-30T01:33:45.158Z,7.07
2022-07-30T01:38:49.627Z,6.97
2022-07-30T01:43:53.458Z,7.70
2022-07-30T01:48:57.534Z,9.20
2022-07-30T01:54:01.954Z,6.87
2022-07-30T01:59:07.000Z,6.37
2022-07-30T02:04:10.425Z,7.23
2022-07-30T02:09:18.007Z,7.23
2022-07-30T02:14:39.080Z,6.10
2022-07-30T02:19:45.233Z,7.20
2022-07-30T02:24:51.352Z,8.73
2022-07-30T02:29:55.934Z,10.13
2022-07-30T02:35:01.900Z,6.03
2022-07-30T02:40:05.193Z,6.80
2022-07-30T02:45:09.515Z,6.23
2022-07-30T02:50:13.543Z,6.47
2022-07-30T02:55:17.861Z,7.03
2022-07-30T03:00:22.002Z,5.93
2022-07-30T03:05:27.866Z,4.83
2022-07-30T03:10:32.012Z,8.33
2022-07-30T03:15:39.490Z,7.60
2022-07-30T03:20:46.267Z,7.47
2022-07-30T03:25:59.171Z,3.97
2022-07-30T03:31:01.983Z,8.20
2022-07-30T03:36:07.116Z,4.73
2022-07-30T03:41:11.758Z,5.30
2022-07-30T03:46:18.286Z,4.37
2022-07-30T03:51:24.708Z,3.20
2022-07-30T03:56:28.531Z,6.07
2022-07-30T04:02:07.311Z,3.97
2022-07-30T04:07:41.435Z,9.60
2022-07-30T04:12:48.955Z,7.00
2022-07-30T04:17:55.902Z,5.23
2022-07-30T04:22:59.927Z,7.60
2022-07-30T04:28:05.727Z,7.13
2022-07-30T04:33:08.567Z,9.33
2022-07-30T04:38:29.654Z,3.70
2022-07-30T04:43:32.316Z,3.63
2022-07-30T04:48:35.104Z,4.77
2022-07-30T04:53:51.341Z,3.73
2022-07-30T04:58:57.080Z,4.03
2022-07-30T05:04:02.398Z,5.47
2022-07-30T05:09:06.324Z,6.13
2022-07-30T05:14:09.049Z,3.40
2022-07-30T05:19:11.913Z,4.67
2022-07-30T05:24:15.299Z,9.67
2022-07-30T05:29:24.938Z,7.17
2022-07-30T05:34:33.389Z,7.27
2022-07-30T05:39:35.910Z,6.37
2022-07-30T05:45:27.679Z,11.07
2022-07-30T05:50:30.280Z,3.67
2022-07-30T05:55:32.985Z,5.10
2022-07-30T06:01:17.059Z,9.40
2022-07-30T06:06:23.081Z,4.10
2022-07-30T06:11:27.020Z,4.50
2022-07-30T06:16:29.562Z,6.40
2022-07-30T06:22:01.580Z,7.87
2022-07-30T06:26:58.055Z,5.43
2022-07-30T06:32:00.930Z,3.83
2022-07-30T06:37:03.882Z,4.20
2022-07-30T06:42:08.610Z,6.37
2022-07-30T06:47:35.199Z,3.70
2022-07-30T06:52:38.685Z,6.83
2022-07-30T06:57:42.625Z,5.13
2022-07-30T07:03:07.543Z,5.97
2022-07-30T07:08:13.837Z,3.57
2022-07-30T07:13:22.305Z,4.87
2022-07-30T07:18:25.139Z,4.10
2022-07-30T07:23:42.209Z,6.87
2022-07-30T07:29:05.372Z,11.02
2022-07-30T07:34:09.450Z,4.80
2022-07-30T07:39:13.021Z,6.05
2022-07-30T07:44:19.159Z,6.85
2022-07-30T07:49:21.739Z,5.03
2022-07-30T07:54:27.709Z,9.73
2022-07-30T07:59:40.365Z,3.88
2022-07-30T08:04:57.592Z,4.25
2022-07-30T08:10:26.525Z,4.47
2022-07-30T08:15:46.939Z,3.53
2022-07-30T08:20:55.351Z,11.73
2022-07-30T08:26:03.480Z,4.60
2022-07-30T08:31:06.293Z,7.20
2022-07-30T08:36:10.038Z,6.28
2022-07-30T08:41:13.846Z,6.05
2022-07-30T08:46:18.750Z,6.80
2022-07-30T08:51:27.422Z,5.72
2022-07-30T08:56:53.149Z,5.13
2022-07-30T09:01:55.697Z,9.90
2022-07-30T09:06:58.252Z,6.05
2022-07-30T09:12:01.581Z,4.45
2022-07-30T09:17:05.793Z,7.32
2022-07-30T09:22:09.625Z,8.02
2022-07-30T09:27:50.621Z,7.38
2022-07-30T09:33:12.330Z,9.77
2022-07-30T09:38:51.731Z,10.75
2022-07-30T09:44:23.997Z,5.45
2022-07-30T09:49:28.554Z,6.85
2022-07-30T09:54:50.966Z,6.70
2022-07-30T09:59:59.831Z,6.97
2022-07-30T10:05:16.833Z,6.90
2022-07-30T10:10:28.044Z,4.00
2022-07-30T10:15:33.488Z,6.25
2022-07-30T10:20:37.903Z,9.60
2022-07-30T10:26:00.618Z,10.25
2022-07-30T10:31:47.452Z,7.53
2022-07-30T10:37:01.800Z,10.00
2022-07-30T10:42:42.332Z,7.85
2022-07-30T10:47:48.643Z,8.02
2022-07-30T10:53:01.519Z,5.50
2022-07-30T10:58:15.749Z,5.50
2022-07-30T11:03:41.291Z,5.97
2022-07-30T11:08:49.503Z,5.23
2022-07-30T11:14:01.214Z,10.03
2022-07-30T11:19:57.032Z,6.27
2022-07-30T11:24:45.709Z,6.17
2022-07-30T11:29:50.700Z,5.00
2022-07-30T11:35:14.830Z,4.13
2022-07-30T11:40:25.903Z,10.43
2022-07-30T11:45:30.329Z,5.93
2022-07-30T11:50:35.003Z,10.53
2022-07-30T11:55:45.467Z,8.50
2022-07-30T12:00:48.368Z,5.40
2022-07-30T12:05:53.271Z,6.70
2022-07-30T12:10:59.069Z,7.97
2022-07-30T12:16:07.093Z,7.10
2022-07-30T12:21:16.289Z,8.97
2022-07-30T12:26:24.723Z,7.50
2022-07-30T12:31:29.763Z,12.30
2022-07-30T12:36:36.127Z,5.67
2022-07-30T12:41:50.061Z,5.47
2022-07-30T12:46:52.653Z,7.60
2022-07-30T12:52:00.139Z,5.50
2022-07-30T12:57:06.747Z,6.17
2022-07-30T13:02:09.498Z,8.80
2022-07-30T13:07:12.687Z,6.27
2022-07-30T13:12:15.297Z,10.10
2022-07-30T13:17:19.127Z,9.30
2022-07-30T13:22:21.749Z,8.67
2022-07-30T13:27:24.254Z,7.57
2022-07-30T13:32:26.835Z,5.73
2022-07-30T13:37:37.925Z,8.03
2022-07-30T13:42:41.648Z,10.87
2022-07-30T13:47:44.044Z,7.53
2022-07-30T13:52:47.018Z,10.23
2022-07-30T13:57:49.547Z,10.17
2022-07-30T14:02:52.025Z,8.77
2022-07-30T14:07:54.630Z,4.90
2022-07-30T14:12:59.736Z,3.90
2022-07-30T14:18:02.399Z,6.77
2022-07-30T14:23:04.836Z,8.23
2022-07-30T14:28:07.262Z,5.60
2022-07-30T14:33:10.451Z,6.20
2022-07-30T14:38:12.945Z,7.33
2022-07-30T14:43:17.381Z,4.87
2022-07-30T14:48:19.835Z,6.27
2022-07-30T14:53:22.646Z,9.77
2022-07-30T14:58:25.513Z,7.37
2022-07-30T15:03:28.023Z,5.03
2022-07-30T15:08:30.447Z,6.50
2022-07-30T15:13:32.950Z,6.03
2022-07-30T15:18:35.496Z,4.50
2022-07-30T15:23:38.200Z,15.20
2022-07-30T15:28:40.629Z,8.43
2022-07-30T15:33:43.191Z,9.13
2022-07-30T15:38:46.171Z,6.33
2022-07-30T15:43:49.018Z,11.00
2022-07-30T15:48:51.521Z,19.67
2022-07-30T15:53:54.032Z,24.10
2022-07-30T15:58:57.959Z,27.10
2022-07-30T16:04:00.794Z,15.47
2022-07-30T16:09:05.051Z,24.87
2022-07-30T16:14:07.536Z,34.30
2022-07-30T16:19:10.013Z,16.63
2022-07-30T16:24:12.407Z,34.40
2022-07-30T16:29:14.880Z,30.07
2022-07-30T16:34:17.645Z,10.37
2022-07-30T16:39:29.490Z,9.77
2022-07-30T16:44:34.410Z,8.53
2022-07-30T16:49:36.929Z,13.93
2022-07-30T16:54:39.338Z,8.37
2022-07-30T16:59:43.544Z,11.67
2022-07-30T17:04:46.254Z,8.83
2022-07-30T17:09:52.607Z,11.97
2022-07-30T17:14:55.414Z,10.60
2022-07-30T17:20:00.074Z,10.80
2022-07-30T17:25:02.572Z,10.47
2022-07-30T17:30:06.035Z,6.57
2022-07-30T17:35:13.479Z,8.23
2022-07-30T17:40:28.320Z,8.53
2022-07-30T17:45:35.508Z,7.73
2022-07-30T17:50:38.154Z,7.10
2022-07-30T17:55:40.574Z,7.77
2022-07-30T18:01:02.756Z,7.77
2022-07-30T18:06:05.438Z,7.27
2022-07-30T18:11:11.878Z,6.93
2022-07-30T18:16:16.252Z,8.70
2022-07-30T18:21:18.785Z,7.53
2022-07-30T18:26:21.213Z,12.63
2022-07-30T18:31:23.659Z,10.10
2022-07-30T18:36:26.224Z,10.37
2022-07-30T18:41:29.451Z,28.53
2022-07-30T18:46:32.093Z,16.73
2022-07-30T18:51:34.543Z,15.13
2022-07-30T18:56:36.966Z,13.77
2022-07-30T19:01:39.469Z,8.83
2022-07-30T19:06:41.939Z,8.17
2022-07-30T19:11:45.248Z,9.90
2022-07-30T19:16:47.899Z,7.83
2022-07-30T19:21:51.659Z,8.83
2022-07-30T19:26:54.205Z,6.93
2022-07-30T19:31:56.711Z,6.50
2022-07-30T19:36:59.179Z,8.07
2022-07-30T19:42:01.711Z,10.03
2022-07-30T19:47:05.558Z,15.43
2022-07-30T19:52:23.167Z,11.13
2022-07-30T19:57:45.618Z,9.47
2022-07-30T20:02:50.716Z,14.13
2022-07-30T20:07:53.270Z,12.63
2022-07-30T20:12:58.313Z,7.83
2022-07-30T20:18:00.762Z,14.40
2022-07-30T20:23:05.692Z,15.60
2022-07-30T20:28:08.313Z,13.53
2022-07-30T20:33:11.415Z,16.63
2022-07-30T20:38:13.875Z,13.30
2022-07-30T20:43:18.672Z,17.93
2022-07-30T20:48:25.625Z,14.10
2022-07-30T20:53:33.724Z,13.17
2022-07-30T20:58:39.501Z,12.97
2022-07-30T21:03:44.120Z,12.10
2022-07-30T21:08:50.767Z,15.90
2022-07-30T21:13:54.011Z,14.20
2022-07-30T21:18:57.604Z,17.47
2022-07-30T21:24:01.261Z,21.93
2022-07-30T21:29:03.755Z,12.13
2022-07-30T21:34:07.555Z,10.10
2022-07-30T21:39:13.787Z,12.20
2022-07-30T21:44:16.551Z,7.60
2022-07-30T21:49:20.531Z,10.90
2022-07-30T21:54:28.435Z,11.00
2022-07-30T21:59:31.394Z,11.83
2022-07-30T22:04:34.271Z,23.20
2022-07-30T22:09:36.734Z,30.87
2022-07-30T22:14:39.225Z,22.47
2022-07-30T22:19:41.681Z,17.30
2022-07-30T22:24:46.491Z,24.67
2022-07-30T22:29:49.497Z,20.57
2022-07-30T22:34:52.902Z,18.07
2022-07-30T22:39:55.623Z,8.93
2022-07-30T22:45:00.304Z,10.53
2022-07-30T22:50:03.460Z,8.87
2022-07-30T22:55:09.119Z,9.60
2022-07-30T23:00:14.949Z,11.57
2022-07-30T23:05:31.166Z,11.27
2022-07-30T23:10:37.833Z,9.17
2022-07-30T23:15:40.297Z,9.27
2022-07-30T23:20:42.868Z,8.57
2022-07-30T23:25:45.363Z,10.27
2022-07-30T23:30:47.867Z,9.57
2022-07-30T23:35:50.339Z,6.70
2022-07-30T23:40:54.165Z,13.73
2022-07-30T23:45:56.957Z,9.73
2022-07-30T23:50:59.621Z,8.13
2022-07-30T23:56:03.487Z,9.70
